Time;durP1;ratioP1;P1;durP2;ratioP2;P2;SDS_P1;SDS_P2;PMS_P1;PMS_P2;Temp;Humidity;BMP_temperature;BMP_pressure;BME280_temperature;BME280_humidity;BME280_pressure;Samples;Min_cycle;Max_cycle;Signal;HPM_P1;HPM_P2
2021/08/23 00:01:56;;;;;;;41.90;19.77;;;;;;;15.84;100.00;101693.56;5066054;28;20028;-66
2021/08/23 00:04:22;;;;;;;42.80;20.25;;;;;;;15.88;100.00;101693.53;5063886;28;20036;-65
2021/08/23 00:06:47;;;;;;;43.15;20.08;;;;;;;15.86;100.00;101685.56;5066740;28;20028;-65
2021/08/23 00:09:12;;;;;;;45.67;21.17;;;;;;;15.87;100.00;101689.97;5063632;28;20025;-65
2021/08/23 00:11:38;;;;;;;44.88;20.10;;;;;;;15.85;100.00;101691.78;5066232;28;20033;-66
2021/08/23 00:14:03;;;;;;;40.88;18.33;;;;;;;15.85;100.00;101694.44;5064785;28;20048;-65
2021/08/23 00:16:29;;;;;;;41.17;18.60;;;;;;;15.83;100.00;101693.56;5065218;28;20108;-65
2021/08/23 00:18:54;;;;;;;43.40;19.40;;;;;;;15.81;100.00;101696.25;5065930;28;20383;-65
2021/08/23 00:21:25;;;;;;;42.25;19.02;;;;;;;15.82;100.00;101698.00;5063220;28;20029;-65
2021/08/23 00:24:07;;;;;;;46.60;19.65;;;;;;;15.80;100.00;101701.56;5066599;28;20020;-65
2021/08/23 00:26:33;;;;;;;45.90;19.55;;;;;;;15.82;100.00;101705.13;5065245;28;20441;-65
2021/08/23 00:29:00;;;;;;;41.35;18.83;;;;;;;15.84;100.00;101711.31;5065067;28;20044;-66
2021/08/23 00:31:25;;;;;;;41.53;19.08;;;;;;;15.83;100.00;101707.78;5063823;28;20060;-65
2021/08/23 00:33:50;;;;;;;44.10;19.15;;;;;;;15.84;100.00;101708.66;5066294;28;20059;-66
2021/08/23 00:36:16;;;;;;;44.95;19.45;;;;;;;15.88;100.00;101698.88;5063104;28;20452;-66
2021/08/23 00:38:41;;;;;;;44.72;18.60;;;;;;;15.86;100.00;101699.75;5066263;28;20020;-65
2021/08/23 00:41:07;;;;;;;41.40;17.67;;;;;;;15.86;100.00;101702.44;5063649;28;20074;-65
2021/08/23 00:43:32;;;;;;;39.95;16.60;;;;;;;15.87;100.00;101708.63;5064933;28;20032;-65
2021/08/23 00:45:59;;;;;;;40.42;17.80;;;;;;;15.86;100.00;101707.75;5065386;28;20483;-65
2021/08/23 00:48:24;;;;;;;37.70;16.95;;;;;;;15.87;100.00;101703.31;5063419;28;20024;-64
2021/08/23 00:50:50;;;;;;;39.75;16.77;;;;;;;15.85;100.00;101707.75;5065662;28;20049;-64
2021/08/23 00:53:16;;;;;;;34.75;15.23;;;;;;;15.88;100.00;101705.09;5063120;28;20438;-65
2021/08/23 00:55:43;;;;;;;41.72;17.98;;;;;;;15.86;100.00;101707.75;5066011;28;20380;-64
2021/08/23 00:58:08;;;;;;;41.35;18.80;;;;;;;15.86;100.00;101704.22;5063062;28;20044;-65
2021/08/23 01:00:39;;;;;;;43.08;18.40;;;;;;;15.85;100.00;101708.63;5063720;28;20052;-65
2021/08/23 01:03:15;;;;;;;42.28;17.70;;;;;;;15.88;100.00;101713.09;5063644;28;20027;-64
2021/08/23 01:05:41;;;;;;;45.03;19.35;;;;;;;15.89;100.00;101709.53;5065200;28;20028;-64
2021/08/23 01:08:34;;;;;;;47.22;19.45;;;;;;;15.91;100.00;101715.72;5063431;28;20032;-64
2021/08/23 01:11:03;;;;;;;46.25;19.38;;;;;;;15.92;100.00;101714.84;5063870;28;20036;-64
2021/08/23 01:13:29;;;;;;;51.95;21.08;;;;;;;15.93;100.00;101718.38;5064466;28;20036;-64
2021/08/23 01:15:54;;;;;;;52.63;21.33;;;;;;;15.95;100.00;101719.28;5062908;28;20029;-64
2021/08/23 01:18:20;;;;;;;52.28;21.13;;;;;;;15.97;100.00;101722.81;5065560;28;20070;-64
2021/08/23 01:20:47;;;;;;;51.20;20.33;;;;;;;15.98;100.00;101727.28;5062398;28;20169;-65
2021/08/23 01:23:13;;;;;;;54.80;22.25;;;;;;;16.00;100.00;101733.47;5065084;28;20057;-64
2021/08/23 01:25:40;;;;;;;55.28;22.52;;;;;;;15.99;100.00;101729.94;5062725;28;20382;-64
2021/08/23 01:28:11;;;;;;;63.95;23.50;;;;;;;16.01;100.00;101735.25;5064717;28;20029;-64
2021/08/23 01:31:06;;;;;;;57.00;23.70;;;;;;;16.04;100.00;101748.56;5062786;28;20059;-64
2021/08/23 01:33:32;;;;;;;58.03;22.98;;;;;;;16.07;100.00;101751.22;5063774;28;20021;-64
2021/08/23 01:35:59;;;;;;;57.17;22.75;;;;;;;16.10;100.00;101753.88;5063940;28;20042;-65
2021/08/23 01:38:25;;;;;;;57.00;22.30;;;;;;;16.12;100.00;101751.19;5062494;28;20032;-64
2021/08/23 01:41:06;;;;;;;60.63;22.25;;;;;;;16.12;100.00;101757.44;5065149;28;20016;-64
2021/08/23 01:43:32;;;;;;;51.90;21.83;;;;;;;16.14;100.00;101760.09;5063910;28;20025;-64
2021/08/23 01:45:57;;;;;;;53.95;20.67;;;;;;;16.16;100.00;101763.63;5063805;28;20039;-65
2021/08/23 01:48:23;;;;;;;52.63;21.13;;;;;;;16.17;100.00;101768.09;5060902;28;20144;-64
2021/08/23 01:50:49;;;;;;;54.30;21.17;;;;;;;16.17;100.00;101770.75;5064689;28;20043;-64
2021/08/23 01:53:16;;;;;;;52.70;21.52;;;;;;;16.16;100.00;101774.31;5061709;28;20029;-64
2021/08/23 01:55:43;;;;;;;54.88;22.40;;;;;;;16.18;100.00;101783.19;5064558;28;20025;-64
2021/08/23 01:58:08;;;;;;;55.58;21.92;;;;;;;16.18;100.00;101783.19;5061961;28;20095;-64
2021/08/23 02:00:33;;;;;;;59.40;23.08;;;;;;;16.17;100.00;101782.28;5063530;28;20531;-64
2021/08/23 02:02:58;;;;;;;59.50;22.65;;;;;;;16.15;100.00;101791.19;5063802;28;20099;-64
2021/08/23 02:05:25;;;;;;;60.95;23.25;;;;;;;16.14;100.00;101794.78;5061834;28;20057;-64
2021/08/23 02:07:50;;;;;;;63.42;24.13;;;;;;;16.13;100.00;101801.88;5064501;28;20115;-64
2021/08/23 02:10:16;;;;;;;64.43;24.25;;;;;;;16.14;100.00;101805.44;5061245;28;20116;-64
2021/08/23 02:12:41;;;;;;;64.55;24.13;;;;;;;16.13;100.00;101807.19;5063821;28;20025;-64
2021/08/23 02:15:07;;;;;;;67.78;24.65;;;;;;;16.14;100.00;101813.44;5062085;28;20077;-65
2021/08/23 02:17:32;;;;;;;69.97;24.98;;;;;;;16.10;100.00;101809.88;5062970;28;20028;-64
2021/08/23 02:19:58;;;;;;;69.20;25.30;;;;;;;16.07;100.00;101811.69;5063650;28;20020;-64
2021/08/23 02:22:23;;;;;;;74.57;26.27;;;;;;;16.08;100.00;101817.00;5061498;28;20476;-65
2021/08/23 02:24:48;;;;;;;70.97;26.23;;;;;;;16.10;100.00;101823.22;5064590;28;20414;-65
2021/08/23 02:27:14;;;;;;;77.03;28.10;;;;;;;16.08;100.00;101827.69;5061314;28;20044;-64
2021/08/23 02:29:39;;;;;;;79.47;28.65;;;;;;;16.11;100.00;101829.47;5063436;28;20094;-66
2021/08/23 02:32:05;;;;;;;81.55;29.67;;;;;;;16.08;100.00;101835.69;5062401;28;20021;-66
2021/08/23 02:34:30;;;;;;;83.50;29.85;;;;;;;16.06;100.00;101844.56;5062202;28;20029;-66
2021/08/23 02:36:55;;;;;;;85.35;30.73;;;;;;;16.00;100.00;101841.03;5063785;28;20033;-66
2021/08/23 02:39:21;;;;;;;91.80;32.90;;;;;;;15.99;100.00;101857.94;5060941;28;20028;-66
2021/08/23 02:41:53;;;;;;;95.32;34.60;;;;;;;15.96;100.00;101844.59;5064256;28;20379;-66
2021/08/23 02:44:18;;;;;;;79.38;31.92;;;;;;;15.95;100.00;101856.16;5060867;28;20079;-66
2021/08/23 02:46:43;;;;;;;87.30;33.20;;;;;;;15.90;100.00;101849.97;5064163;28;20026;-66
2021/08/23 02:49:09;;;;;;;86.15;34.17;;;;;;;15.82;100.00;101849.94;5061297;28;20021;-66
2021/08/23 02:51:34;;;;;;;86.38;33.88;;;;;;;15.81;100.00;101860.63;5062956;28;20110;-66
2021/08/23 02:53:59;;;;;;;76.65;33.03;;;;;;;15.81;100.00;101857.94;5062800;28;20017;-66
2021/08/23 02:56:25;;;;;;;82.55;34.30;;;;;;;15.74;100.00;101862.38;5061209;28;20163;-66
2021/08/23 02:58:50;;;;;;;94.07;35.92;;;;;;;15.74;100.00;101870.38;5064131;28;20043;-66
2021/08/23 03:01:16;;;;;;;89.20;34.80;;;;;;;15.69;100.00;101873.03;5060589;28;20033;-66
2021/08/23 03:03:42;;;;;;;92.75;37.30;;;;;;;15.71;100.00;101873.03;5063669;28;20020;-66
2021/08/23 03:06:08;;;;;;;98.95;37.90;;;;;;;15.72;100.00;101876.59;5062331;28;20032;-66
2021/08/23 03:08:33;;;;;;;101.22;37.53;;;;;;;15.71;100.00;101874.81;5062210;28;20464;-65
2021/08/23 03:11:13;;;;;;;101.38;37.80;;;;;;;15.76;100.00;101883.69;5062921;28;20085;-64
2021/08/23 03:13:43;;;;;;;103.97;38.08;;;;;;;15.68;100.00;101881.94;5062939;28;20025;-64
2021/08/23 03:16:09;;;;;;;107.35;38.78;;;;;;;15.69;100.00;101882.81;5061844;28;20360;-64
2021/08/23 03:18:35;;;;;;;111.70;41.17;;;;;;;15.71;100.00;101889.00;5062452;28;20467;-64
2021/08/23 03:21:01;;;;;;;114.50;41.33;;;;;;;15.70;100.00;101895.25;5062624;28;20032;-65
2021/08/23 03:23:27;;;;;;;107.75;40.10;;;;;;;15.73;100.00;101897.00;5062658;28;20029;-66
2021/08/23 03:25:53;;;;;;;111.65;40.10;;;;;;;15.70;100.00;101897.91;5067469;28;20056;-65
2021/08/23 03:28:18;;;;;;;106.05;41.00;;;;;;;15.71;100.00;101898.78;5064557;28;20060;-68
2021/08/23 03:30:44;;;;;;;106.97;42.40;;;;;;;15.70;100.00;101903.25;5067269;28;20028;-65
2021/08/23 03:33:09;;;;;;;109.18;41.42;;;;;;;15.70;100.00;101908.59;5064979;28;20024;-64
2021/08/23 03:35:34;;;;;;;107.35;40.67;;;;;;;15.69;100.00;101910.34;5066472;28;20025;-65
2021/08/23 03:38:01;;;;;;;102.90;42.72;;;;;;;15.67;100.00;101914.78;5066129;28;20016;-64
2021/08/23 03:40:27;;;;;;;100.75;40.17;;;;;;;15.69;100.00;101913.00;5065115;28;20036;-65
2021/08/23 03:42:52;;;;;;;100.03;41.83;;;;;;;15.68;100.00;101924.56;5067320;28;20444;-65
2021/08/23 03:45:17;;;;;;;104.18;41.88;;;;;;;15.70;100.00;101924.56;5063977;28;20021;-65
2021/08/23 03:47:43;;;;;;;94.25;42.00;;;;;;;15.68;100.00;101927.25;5067123;28;20383;-65
2021/08/23 03:50:09;;;;;;;102.05;41.92;;;;;;;15.68;100.00;101931.66;5064819;28;20064;-65
2021/08/23 03:52:34;;;;;;;96.25;42.25;;;;;;;15.67;100.00;101933.44;5065783;28;20120;-65
2021/08/23 03:54:59;;;;;;;95.35;41.17;;;;;;;15.66;100.00;101944.13;5065875;28;20025;-65
2021/08/23 03:57:25;;;;;;;90.75;40.20;;;;;;;15.70;100.00;101951.22;5064244;28;20033;-64
2021/08/23 03:59:50;;;;;;;93.05;39.00;;;;;;;15.63;100.00;101957.44;5067228;28;20027;-65
2021/08/23 04:02:15;;;;;;;86.63;40.58;;;;;;;15.64;100.00;101949.44;5063627;28;20028;-65
2021/08/23 04:04:41;;;;;;;88.60;40.10;;;;;;;15.61;100.00;101960.09;5066805;28;20024;-64
2021/08/23 04:07:06;;;;;;;92.20;40.28;;;;;;;15.59;100.00;101967.19;5064790;28;20086;-64
2021/08/23 04:09:31;;;;;;;86.25;38.35;;;;;;;15.58;100.00;101965.44;5065016;28;20074;-65
2021/08/23 04:11:57;;;;;;;89.88;38.75;;;;;;;15.57;100.00;101963.66;5065951;28;20073;-64
2021/08/23 04:14:22;;;;;;;92.57;39.08;;;;;;;15.57;100.00;101970.75;5063492;28;20033;-64
2021/08/23 04:16:47;;;;;;;91.55;38.53;;;;;;;15.55;100.00;101969.84;5066774;28;20025;-65
2021/08/23 04:19:13;;;;;;;89.95;38.33;;;;;;;15.54;100.00;101971.66;5063679;28;20032;-64
2021/08/23 04:21:38;;;;;;;95.60;38.15;;;;;;;15.56;100.00;101974.31;5065404;28;20017;-65
2021/08/23 04:24:03;;;;;;;101.13;40.33;;;;;;;15.58;100.00;101975.19;5065144;28;20040;-66
2021/08/23 04:26:29;;;;;;;96.50;38.97;;;;;;;15.59;100.00;101980.50;5064162;28;20032;-66
2021/08/23 04:28:54;;;;;;;102.15;39.28;;;;;;;15.63;100.00;101982.31;5066340;28;20021;-66
2021/08/23 04:31:19;;;;;;;102.97;39.80;;;;;;;15.63;100.00;101981.44;5063023;28;20025;-65
2021/08/23 04:33:46;;;;;;;107.53;41.80;;;;;;;15.64;100.00;101986.75;5066072;28;20024;-66
2021/08/23 04:36:12;;;;;;;110.18;40.15;;;;;;;15.67;100.00;101993.88;5063514;28;20510;-66
2021/08/23 04:38:38;;;;;;;110.03;41.13;;;;;;;15.70;100.00;101996.53;5065453;28;20108;-66
2021/08/23 04:41:03;;;;;;;106.80;40.38;;;;;;;15.73;100.00;102015.19;5064558;28;20475;-65
2021/08/23 04:43:29;;;;;;;106.63;40.15;;;;;;;15.74;100.00;101998.34;5064294;28;20368;-65
2021/08/23 04:45:54;;;;;;;113.90;39.90;;;;;;;15.74;100.00;102006.31;5065809;28;20351;-65
2021/08/23 04:48:19;;;;;;;101.05;38.35;;;;;;;15.77;100.00;102011.66;5062587;28;20083;-66
2021/08/23 04:50:45;;;;;;;106.78;38.92;;;;;;;15.77;100.00;102008.06;5065910;28;20044;-67
2021/08/23 04:53:10;;;;;;;104.93;38.10;;;;;;;15.78;100.00;102010.78;5063400;28;20029;-66
2021/08/23 04:55:35;;;;;;;100.80;37.20;;;;;;;15.80;100.00;102011.69;5064656;28;20028;-66
2021/08/23 04:58:00;;;;;;;91.80;35.35;;;;;;;15.84;100.00;102023.22;5064863;28;20025;-66
2021/08/23 05:00:26;;;;;;;91.72;35.67;;;;;;;15.83;100.00;102024.16;5063086;28;20047;-66
2021/08/23 05:02:51;;;;;;;95.60;34.45;;;;;;;15.84;100.00;102033.91;5065712;28;20025;-66
2021/08/23 05:05:17;;;;;;;96.07;35.42;;;;;;;15.88;100.00;102029.47;5062626;28;20596;-67
2021/08/23 05:07:42;;;;;;;94.28;34.17;;;;;;;15.85;100.00;102033.91;5065147;28;20028;-67
2021/08/23 05:10:08;;;;;;;88.05;35.08;;;;;;;15.82;100.00;102035.69;5063777;28;20027;-66
2021/08/23 05:12:33;;;;;;;85.03;34.75;;;;;;;15.78;100.00;102036.53;5064258;28;20352;-67
2021/08/23 05:14:59;;;;;;;83.30;33.38;;;;;;;15.72;100.00;102041.84;5064658;28;20025;-67
2021/08/23 05:17:25;;;;;;;86.53;33.38;;;;;;;15.73;100.00;102041.84;5062504;28;20102;-64
2021/08/23 05:19:51;;;;;;;85.00;35.15;;;;;;;15.73;100.00;102052.53;5065606;28;20020;-67
2021/08/23 05:22:17;;;;;;;80.28;33.67;;;;;;;15.72;100.00;102047.19;5062321;28;20031;-67
2021/08/23 05:24:43;;;;;;;85.15;35.03;;;;;;;15.74;100.00;102059.63;5064967;28;20055;-67
2021/08/23 05:27:08;;;;;;;86.35;35.25;;;;;;;15.70;100.00;102060.50;5063365;28;20101;-66
2021/08/23 05:29:33;;;;;;;81.85;34.72;;;;;;;15.68;100.00;102062.25;5063580;28;20432;-67
2021/08/23 05:31:59;;;;;;;81.40;34.58;;;;;;;15.65;100.00;102057.84;5064368;28;20554;-66
2021/08/23 05:34:24;;;;;;;77.00;33.80;;;;;;;15.66;100.00;102061.38;5060763;28;20031;-66
2021/08/23 05:36:49;;;;;;;78.00;34.50;;;;;;;15.60;100.00;102075.59;5065219;28;20020;-66
2021/08/23 05:39:15;;;;;;;82.85;35.63;;;;;;;15.60;100.00;102072.03;5062447;28;20031;-66
2021/08/23 05:41:40;;;;;;;78.45;34.33;;;;;;;15.58;100.00;102072.03;5064399;28;20028;-66
2021/08/23 05:44:05;;;;;;;75.88;34.42;;;;;;;15.55;100.00;102081.78;5063269;28;20048;-65
2021/08/23 05:46:30;;;;;;;77.05;35.45;;;;;;;15.53;100.00;102092.44;5062626;28;20408;-66
2021/08/23 05:48:56;;;;;;;83.55;36.80;;;;;;;15.52;100.00;102085.31;5063453;28;20028;-66
2021/08/23 05:51:21;;;;;;;76.93;34.63;;;;;;;15.53;100.00;102084.44;5061248;28;20053;-65
2021/08/23 05:53:46;;;;;;;76.85;34.50;;;;;;;15.55;100.00;102095.09;5065081;28;20471;-66
2021/08/23 05:56:12;;;;;;;80.30;35.50;;;;;;;15.54;100.00;102096.88;5062379;28;20380;-66
2021/08/23 05:58:37;;;;;;;85.15;36.55;;;;;;;15.52;100.00;102098.63;5063741;28;20037;-66
2021/08/23 06:01:07;;;;;;;91.78;38.17;;;;;;;15.49;100.00;102103.97;5061951;28;20041;-66
2021/08/23 06:03:39;;;;;;;91.25;37.58;;;;;;;15.49;100.00;102106.63;5062698;28;20383;-63
2021/08/23 06:06:06;;;;;;;87.53;37.42;;;;;;;15.47;100.00;102103.97;5068596;28;20107;-63
2021/08/23 06:08:33;;;;;;;85.03;37.88;;;;;;;15.44;100.00;102109.28;5071564;28;20116;-63
2021/08/23 06:10:58;;;;;;;80.18;37.55;;;;;;;15.44;100.00;102113.72;5071312;28;20028;-64
2021/08/23 06:13:23;;;;;;;80.78;37.38;;;;;;;15.46;100.00;102117.28;5071651;28;20028;-65
2021/08/23 06:15:49;;;;;;;84.45;37.13;;;;;;;15.47;100.00;102113.75;5071793;28;20467;-64
2021/08/23 06:18:14;;;;;;;83.22;37.05;;;;;;;15.46;100.00;102120.81;5071078;28;20029;-64
2021/08/23 06:20:42;;;;;;;80.22;37.65;;;;;;;15.49;100.00;102122.63;5070958;28;20077;-64
2021/08/23 06:23:07;;;;;;;82.55;37.67;;;;;;;15.56;100.00;102123.53;5071221;28;20073;-64
2021/08/23 06:25:33;;;;;;;72.47;35.83;;;;;;;15.59;100.00;102121.75;5071251;28;20123;-64
2021/08/23 06:27:58;;;;;;;73.35;36.17;;;;;;;15.65;100.00;102126.22;5071235;28;20024;-64
2021/08/23 06:30:24;;;;;;;70.55;34.95;;;;;;;15.63;100.00;102126.22;5071068;28;20032;-65
2021/08/23 06:32:49;;;;;;;68.38;33.53;;;;;;;15.60;100.00;102131.56;5071370;28;20021;-65
2021/08/23 06:35:14;;;;;;;62.28;33.97;;;;;;;15.55;100.00;102130.63;5071523;28;20021;-64
2021/08/23 06:37:41;;;;;;;59.88;32.05;;;;;;;15.47;100.00;102135.06;5071214;28;20467;-64
2021/08/23 06:40:08;;;;;;;62.15;32.10;;;;;;;15.48;100.00;102136.84;5070601;28;20391;-63
2021/08/23 06:42:35;;;;;;;60.25;31.73;;;;;;;15.47;100.00;102135.06;5071358;28;20029;-63
2021/08/23 06:45:01;;;;;;;55.25;30.98;;;;;;;15.52;100.00;102141.28;5071443;28;20055;-62
2021/08/23 06:47:27;;;;;;;56.83;29.88;;;;;;;15.54;100.00;102142.19;5068261;28;20056;-63
2021/08/23 06:49:52;;;;;;;56.05;30.17;;;;;;;15.57;100.00;102142.19;5071087;28;20079;-64
2021/08/23 06:52:17;;;;;;;50.92;29.05;;;;;;;15.62;100.00;102144.88;5068958;28;20545;-64
2021/08/23 06:54:42;;;;;;;49.20;27.48;;;;;;;15.61;100.00;102154.66;5069787;28;20036;-63
2021/08/23 06:57:08;;;;;;;47.08;26.75;;;;;;;15.61;100.00;102154.66;5071118;28;20036;-63
2021/08/23 06:59:33;;;;;;;45.85;26.48;;;;;;;15.62;100.00;102150.22;5072226;28;20028;-66
2021/08/23 07:01:58;;;;;;;43.85;25.60;;;;;;;15.68;100.00;102156.47;5073768;28;20060;-63
2021/08/23 07:04:24;;;;;;;42.38;24.95;;;;;;;15.68;100.00;102161.81;5075292;28;20056;-63
2021/08/23 07:06:49;;;;;;;43.45;24.90;;;;;;;15.74;100.00;102165.34;5074794;28;20534;-63
2021/08/23 07:09:14;;;;;;;41.95;24.55;;;;;;;15.85;100.00;102164.53;5074949;28;20100;-64
2021/08/23 07:11:40;;;;;;;42.35;24.70;;;;;;;15.88;100.00;102165.44;5074881;28;20033;-63
2021/08/23 07:14:05;;;;;;;41.53;24.30;;;;;;;15.94;100.00;102169.00;5074446;28;20059;-63
2021/08/23 07:16:30;;;;;;;40.63;24.38;;;;;;;15.98;100.00;102168.13;5074225;28;20498;-64
2021/08/23 07:18:56;;;;;;;41.17;24.15;;;;;;;16.01;100.00;102170.81;5074704;28;20086;-64
2021/08/23 07:21:21;;;;;;;41.38;23.95;;;;;;;16.18;100.00;102169.97;5074349;28;20116;-63
2021/08/23 07:23:46;;;;;;;40.50;24.02;;;;;;;16.28;100.00;102173.53;5074671;28;20063;-64
2021/08/23 07:26:12;;;;;;;40.45;24.20;;;;;;;16.37;100.00;102174.44;5074353;28;20035;-63
2021/08/23 07:28:37;;;;;;;41.22;24.67;;;;;;;16.48;100.00;102184.25;5073869;28;20048;-64
2021/08/23 07:31:03;;;;;;;40.22;24.25;;;;;;;16.52;100.00;102178.03;5073317;28;20064;-64
2021/08/23 07:33:28;;;;;;;39.45;24.20;;;;;;;16.55;100.00;102178.03;5074369;28;20028;-63
2021/08/23 07:35:54;;;;;;;40.70;23.58;;;;;;;16.59;100.00;102184.28;5074897;28;20024;-64
2021/08/23 07:38:19;;;;;;;38.42;23.95;;;;;;;16.59;100.00;102190.50;5074330;28;20080;-63
2021/08/23 07:40:44;;;;;;;38.53;24.15;;;;;;;16.62;100.00;102190.47;5073592;28;20072;-64
2021/08/23 07:43:10;;;;;;;39.22;24.05;;;;;;;16.68;100.00;102198.50;5073243;28;20029;-64
2021/08/23 07:45:35;;;;;;;39.97;24.63;;;;;;;16.78;100.00;102199.38;5073859;28;20035;-64
2021/08/23 07:48:01;;;;;;;40.78;26.30;;;;;;;16.86;100.00;102199.38;5073832;28;20418;-64
2021/08/23 07:50:26;;;;;;;39.53;23.80;;;;;;;16.93;100.00;102205.66;5073535;28;20592;-64
2021/08/23 07:52:52;;;;;;;39.63;24.55;;;;;;;17.05;100.00;102201.19;5074170;28;20503;-64
2021/08/23 07:55:17;;;;;;;36.35;22.15;;;;;;;17.28;100.00;102202.91;5073859;28;20395;-65
2021/08/23 07:57:44;;;;;;;34.58;21.92;;;;;;;17.36;100.00;102201.13;5073361;28;20388;-64
2021/08/23 08:00:11;;;;;;;36.92;21.65;;;;;;;17.50;100.00;102200.19;5073120;28;20032;-65
2021/08/23 08:02:36;;;;;;;35.10;22.15;;;;;;;17.66;100.00;102204.59;5072376;28;20115;-65
2021/08/23 08:05:02;;;;;;;36.33;22.27;;;;;;;17.94;100.00;102204.53;5074385;28;20138;-64
2021/08/23 08:07:27;;;;;;;34.58;20.77;;;;;;;18.22;100.00;102207.06;5073827;28;20024;-65
2021/08/23 08:09:53;;;;;;;33.95;19.95;;;;;;;18.40;100.00;102214.94;5065214;28;20025;-65
2021/08/23 08:12:18;;;;;;;33.72;20.67;;;;;;;18.58;100.00;102218.41;5064631;28;20028;-64
2021/08/23 08:14:43;;;;;;;31.45;19.02;;;;;;;18.64;100.00;102218.38;5073876;28;20021;-64
2021/08/23 08:17:09;;;;;;;32.70;19.17;;;;;;;18.47;100.00;102222.03;5073482;28;20081;-65
2021/08/23 08:19:34;;;;;;;31.30;18.25;;;;;;;18.28;100.00;102217.72;5073807;28;20057;-65
2021/08/23 08:22:04;;;;;;;32.72;18.60;;;;;;;18.11;100.00;102216.03;5073889;28;20032;-63
2021/08/23 08:24:30;;;;;;;31.65;17.00;;;;;;;18.17;100.00;102216.88;5068406;28;20601;-64
2021/08/23 08:26:55;;;;;;;30.40;17.05;;;;;;;18.27;100.00;102226.63;5071811;28;20408;-64
2021/08/23 08:29:20;;;;;;;29.35;15.52;;;;;;;18.50;98.36;102220.25;5073462;28;20471;-64
2021/08/23 08:31:46;;;;;;;30.63;16.20;;;;;;;18.89;100.00;102224.44;5073405;28;20399;-64
2021/08/23 08:34:12;;;;;;;29.92;16.45;;;;;;;19.38;97.23;102232.91;5071855;28;20032;-64
2021/08/23 08:36:37;;;;;;;27.02;14.98;;;;;;;19.50;92.46;102228.31;5072199;28;20035;-64
2021/08/23 08:39:03;;;;;;;27.63;15.70;;;;;;;19.84;92.08;102237.78;5072426;28;20025;-66
2021/08/23 08:41:30;;;;;;;26.92;14.55;;;;;;;19.99;89.53;102226.88;5073120;28;20032;-65
2021/08/23 08:43:56;;;;;;;26.50;13.57;;;;;;;19.91;87.42;102238.63;5072899;28;20020;-64
2021/08/23 08:46:34;;;;;;;27.17;14.10;;;;;;;19.98;90.20;102234.91;5072502;28;20100;-64
2021/08/23 08:49:01;;;;;;;25.02;12.90;;;;;;;19.98;87.95;102229.56;5068171;28;20021;-65
2021/08/23 08:51:28;;;;;;;24.83;12.05;;;;;;;19.95;86.37;102245.69;5061137;28;20051;-65
2021/08/23 08:53:53;;;;;;;24.40;11.40;;;;;;;19.80;84.61;102246.78;5064351;28;20037;-65
2021/08/23 08:56:19;;;;;;;23.40;10.93;;;;;;;19.63;85.70;102250.53;5062728;28;20039;-64
2021/08/23 08:58:44;;;;;;;23.45;10.48;;;;;;;19.51;87.45;102251.56;5065714;28;20063;-64
2021/08/23 09:01:11;;;;;;;24.42;11.32;;;;;;;19.34;86.32;102254.41;5061860;28;20057;-65
2021/08/23 09:03:44;;;;;;;22.70;10.98;;;;;;;19.36;89.17;102262.44;5065140;28;20028;-65
2021/08/23 09:06:10;;;;;;;25.45;11.60;;;;;;;19.23;86.23;102261.66;5062018;28;20017;-64
2021/08/23 09:08:44;;;;;;;24.55;11.30;;;;;;;19.12;88.72;102261.75;5065023;28;20449;-64
2021/08/23 09:11:11;;;;;;;23.20;10.45;;;;;;;19.15;84.85;102259.06;5062620;28;20380;-65
2021/08/23 09:13:37;;;;;;;24.92;11.30;;;;;;;19.13;88.10;102263.56;5065220;28;20078;-65
2021/08/23 09:16:02;;;;;;;24.90;11.50;;;;;;;19.21;85.95;102270.59;5063234;28;20028;-64
2021/08/23 09:18:28;;;;;;;24.40;11.57;;;;;;;19.28;88.34;102266.97;5064293;28;20013;-65
2021/08/23 09:21:00;;;;;;;24.02;11.48;;;;;;;19.33;87.25;102274.06;5063350;28;20471;-65
2021/08/23 09:23:39;;;;;;;;;;;;;;;19.49;87.52;102272.13;5063962;28;20379;-66
2021/08/23 09:26:08;;;;;;;23.38;11.10;;;;;;;19.35;84.94;102276.72;5061879;28;19927;-65
2021/08/23 09:28:34;;;;;;;24.40;11.45;;;;;;;19.42;85.72;102278.44;5063572;28;20348;-64
2021/08/23 09:30:59;;;;;;;24.17;11.48;;;;;;;19.56;83.14;102278.31;5063560;28;20036;-65
2021/08/23 09:33:24;;;;;;;24.73;11.05;;;;;;;19.76;81.64;102274.50;5062550;28;20052;-65
2021/08/23 09:35:52;;;;;;;24.95;11.82;;;;;;;20.16;81.11;102282.13;5064919;28;20021;-66
2021/08/23 09:38:18;;;;;;;23.40;10.88;;;;;;;20.66;79.18;102276.94;5064240;28;20078;-67
2021/08/23 09:40:45;;;;;;;23.60;10.75;;;;;;;20.95;76.48;102291.75;5060986;28;20047;-65
2021/08/23 09:43:14;;;;;;;22.13;10.13;;;;;;;20.99;76.91;102288.97;5068932;28;20444;-69
2021/08/23 09:46:05;;;;;;;23.50;10.18;;;;;;;20.77;78.18;102291.13;5072034;28;20070;-65
2021/08/23 09:48:30;;;;;;;23.58;10.32;;;;;;;20.46;75.01;102290.66;5070463;28;20029;-67
2021/08/23 09:50:55;;;;;;;24.52;10.40;;;;;;;20.22;74.87;102286.53;5071694;28;20110;-68
2021/08/23 09:53:21;;;;;;;24.05;10.50;;;;;;;20.29;76.88;102281.03;5071849;28;20060;-68
2021/08/23 09:55:50;;;;;;;22.27;10.30;;;;;;;20.76;79.38;102292.03;5071611;28;20048;-68
2021/08/23 09:58:16;;;;;;;24.60;10.90;;;;;;;21.60;70.61;102286.16;5071827;28;20020;-67
2021/08/23 10:00:43;;;;;;;22.98;10.35;;;;;;;21.97;71.25;102289.91;5071675;28;20107;-67
2021/08/23 10:03:14;;;;;;;26.20;10.23;;;;;;;21.76;69.64;102289.44;5071466;28;20119;-67
2021/08/23 10:05:48;;;;;;;24.83;11.40;;;;;;;21.62;74.00;102291.50;5071364;28;20383;-67
2021/08/23 10:08:25;;;;;;;24.25;10.48;;;;;;;21.68;74.46;102292.28;5071781;28;20032;-67
2021/08/23 10:10:52;;;;;;;24.73;10.88;;;;;;;21.66;71.48;102293.22;5071720;28;20017;-67
2021/08/23 10:13:18;;;;;;;22.73;10.63;;;;;;;21.86;70.31;102288.34;5071068;28;20020;-68
2021/08/23 10:15:44;;;;;;;22.45;10.43;;;;;;;22.01;68.85;102284.44;5070947;28;20044;-67
2021/08/23 10:18:10;;;;;;;24.25;10.43;;;;;;;22.24;69.04;102292.03;5071390;28;20032;-67
2021/08/23 10:20:36;;;;;;;22.15;9.73;;;;;;;22.39;64.95;102285.44;5064248;28;20475;-67
2021/08/23 10:23:04;;;;;;;21.65;9.02;;;;;;;22.37;67.55;102291.81;5063949;28;20029;-67
2021/08/23 10:25:30;;;;;;;21.65;8.55;;;;;;;22.19;66.37;102293.94;5060773;28;20033;-67
2021/08/23 10:28:12;;;;;;;21.77;8.65;;;;;;;21.83;69.39;102291.09;5063530;28;20024;-66
2021/08/23 10:30:37;;;;;;;20.20;8.30;;;;;;;21.53;68.80;102304.19;5060931;28;20032;-66
2021/08/23 10:33:10;;;;;;;20.90;8.80;;;;;;;21.39;70.01;102306.22;5063780;28;20028;-67
2021/08/23 10:35:45;;;;;;;22.60;9.02;;;;;;;21.21;70.39;102297.56;5060604;28;20230;-67
2021/08/23 10:38:16;;;;;;;21.55;8.80;;;;;;;21.14;72.28;102305.78;5063547;28;20021;-67
2021/08/23 10:40:41;;;;;;;22.02;9.10;;;;;;;21.14;69.69;102306.66;5062134;28;20036;-66
2021/08/23 10:43:18;;;;;;;26.92;8.85;;;;;;;21.16;70.95;102310.22;5063794;28;20028;-66
2021/08/23 10:45:44;;;;;;;23.52;9.13;;;;;;;21.02;70.81;102299.69;5061992;28;20487;-65
2021/08/23 10:48:15;;;;;;;22.48;8.38;;;;;;;20.86;71.91;102311.59;5063633;28;20154;-65
2021/08/23 10:50:43;;;;;;;21.80;8.20;;;;;;;20.78;70.50;102319.78;5061323;28;20074;-65
2021/08/23 10:53:14;;;;;;;22.10;7.95;;;;;;;20.67;71.56;102313.69;5063416;28;20025;-65
2021/08/23 10:55:40;;;;;;;23.05;8.05;;;;;;;20.64;73.33;102311.00;5059961;28;20021;-65
2021/08/23 10:58:08;;;;;;;21.38;7.95;;;;;;;20.70;73.46;102311.81;5061413;28;20017;-69
2021/08/23 11:00:43;;;;;;;21.80;8.40;;;;;;;20.82;74.00;102310.75;5062641;28;20032;-66
2021/08/23 11:03:09;;;;;;;20.90;8.57;;;;;;;20.91;73.28;102320.47;5061467;28;20154;-65